• Join FlightAware (Why Join?)
  • Login
  • US Flag 
Rudolph Flight #1: Scheduled 
08:36PM EST


 

Airport Tracker/Info


-or-


 

Live Flight TrackerFlight Track Log ✈ ASQ5740 ✈ 15-Sep-2013 ✈ KIAD - KGSP

Flight Track Log - Related Links

Times and Time Zones

All times are in EDT time to prevent confusion due to time zone crossing. See the ASQ5740 flight status page for this flight to view local times or setup timezone preferences in your user account.

Time Position Orientation Groundspeed Altitude Reporting Facility
EDT Latitude Longitude Course Direction KTS MPH feet Rate Location/Type
01:41PM 38.9167 -77.5333 226° Southwest 198 228 2,500  Level Potomac TRACON
01:42PM 38.8500 -77.5667 201° Southwest 250 288 4,800 2,280 Climbing Potomac TRACON
01:43PM 38.6596 -77.8234 226° Southwest  Level Estimated
01:44PM 38.5875 -77.9138 238° Southwest  Level Estimated
01:44PM 38.6947 -77.5758 183° South 270 311 10,000  Level Washington Center
01:45PM 38.5153 -78.0040 233° Southwest  Level Estimated
01:45PM 38.6094 -77.5736 179° South 288 331 10,900  Level Washington Center
01:46PM 38.4430 -78.0940 226° Southwest  Level Estimated
01:46PM 38.5253 -77.6111 199° South 309 356 12,200  Level Washington Center
01:47PM 38.4469 -77.6914 219° Southwest 333 383 13,200 1,020 Climbing Washington Center
01:48PM 38.3639 -77.7789 220° Southwest 349 402 14,300 1,080 Climbing Washington Center
01:49PM 38.2811 -77.8664 220° Southwest 369 425 15,400 1,080 Climbing Washington Center
01:50PM 38.2042 -77.9514 221° Southwest 374 430 16,500 1,140 Climbing Washington Center
01:51PM 38.1233 -78.0358 219° Southwest 374 430 17,700 960 Climbing Washington Center
01:52PM 38.0444 -78.1203 220° Southwest 374 430 18,500 960 Climbing Washington Center
01:53PM 37.9778 -78.2103 227° Southwest 368 423 19,600 840 Climbing Washington Center
01:54PM 37.9175 -78.3031 231° Southwest 368 423 20,300 540 Climbing Washington Center
01:55PM 37.8464 -78.4003 227° Southwest 379 436 20,800 480 Climbing Washington Center
01:56PM 37.7750 -78.5028 229° Southwest 384 442 21,300 480 Climbing Washington Center
01:57PM 37.7036 -78.6050 229° Southwest 384 442 21,800 480 Climbing Washington Center
01:58PM 37.6236 -78.7172 228° Southwest 394 453 22,300 480 Climbing Washington Center
01:59PM 37.5500 -78.8189 228° Southwest 394 453 22,800 480 Climbing Washington Center
02:00PM 37.4764 -78.9231 228° Southwest 401 461 23,300 480 Climbing Washington Center
02:01PM 37.4003 -79.0297 228° Southwest 401 461 23,800 480 Climbing Washington Center
02:02PM 37.3261 -79.1361 229° Southwest 401 461 24,300 480 Climbing Washington Center
02:03PM 37.2586 -79.2319 229° Southwest 407 468 24,800 480 Climbing Washington Center
02:04PM 37.1825 -79.3381 228° Southwest 407 468 25,300 480 Climbing Washington Center
02:05PM 37.1100 -79.4464 230° Southwest 407 468 25,800 300 Climbing Washington Center
02:06PM 37.0378 -79.5547 230° Southwest 412 474 26,000 60 Climbing Washington Center
02:07PM 36.9631 -79.6653 230° Southwest 418 481 26,000  Level Washington Center
02:08PM 36.8817 -79.7881 230° Southwest 418 481 26,000  Level Washington Center
02:10PM 36.7422 -79.9872 229° Southwest 446 513 26,000  Level Atlanta Center
02:11PM 36.6644 -80.1000 229° Southwest 446 513 26,000  Level Atlanta Center
02:12PM 36.5867 -80.2122 229° Southwest 446 513 26,000  Level Atlanta Center
02:13PM 36.5017 -80.2886 216° Southwest 446 513 26,000 -240 Level Atlanta Center
02:14PM 36.3842 -80.3356 198° South 426 490 25,600 -480 Descending Atlanta Center
02:15PM 36.2664 -80.3744 195° South 438 504 25,100 -540 Descending Atlanta Center
02:16PM 36.1425 -80.4161 195° South 452 520 24,600 -1,020 Descending Atlanta Center
02:17PM 36.0042 -80.4633 195° South 467 537 23,100 -1,500 Descending Atlanta Center
02:18PM 35.8908 -80.5119 199° South 454 522 21,600 -1,500 Descending Atlanta Center
02:19PM 35.8122 -80.6150 227° Southwest 418 481 20,200 -840 Descending Atlanta Center
02:20PM 35.7458 -80.7022 227° Southwest 406 467 20,000 -120 Descending Atlanta Center
02:21PM 35.6736 -80.8050 229° Southwest 399 459 20,000  Level Atlanta Center
02:21PM 35.6417 -80.8572 233° Southwest 394 453 20,000 -120 Level Atlanta Center
02:22PM 35.6011 -80.9075 225° Southwest 399 459 19,900 -360 Descending Atlanta Center
02:22PM 35.5972 -80.9178 245° Southwest 396 456 19,800 -2,220 Descending Atlanta Center
02:23PM 35.5286 -81.0072 227° Southwest 399 459 17,700 -2,580 Descending Atlanta Center
02:23PM 35.5186 -81.0278 239° Southwest 397 457 17,200 -2,640 Descending Atlanta Center
02:24PM 35.4564 -81.1244 232° Southwest 393 452 15,100 -2,460 Descending Atlanta Center
02:24PM 35.4564 -81.1297 270° West 370 426 14,700 -1,740 Descending Atlanta Center
02:25PM 35.4022 -81.2258 235° Southwest 372 428 13,400 -1,500 Descending Atlanta Center
02:25PM 35.4003 -81.2336 253° West 355 409 13,200 -1,320 Descending Atlanta Center
02:26PM 35.3506 -81.3319 238° Southwest 365 420 12,100 -1,200 Descending Atlanta Center
02:26PM 35.3483 -81.3347 226° Southwest 363 418 12,000 -420 Descending Atlanta Center
02:27PM 35.2964 -81.4356 238° Southwest 365 420 11,700 -720 Descending Atlanta Center
02:28PM 35.2422 -81.5364 237° Southwest 365 420 10,700 -900 Descending Atlanta Center
02:29PM 35.1917 -81.6244 235° Southwest 359 413 10,000 -420 Descending Atlanta Center
02:30PM 35.1350 -81.7097 231° Southwest 338 389 9,900 -60 Descending Atlanta Center
02:31PM 35.0800 -81.7925 231° Southwest 326 375 9,900 -600 Level Atlanta Center
02:32PM 35.0333 -81.8622 231° Southwest 295 339 8,800 -1,380 Descending Atlanta Center
02:33PM 34.9867 -81.9344 232° Southwest 270 311 7,200 -1,500 Descending Atlanta Center
02:34PM 34.9375 -81.9917 224° Southwest 253 291 5,800 -1,500 Descending Atlanta Center
02:35PM 34.8800 -82.0511 220° Southwest 253 291 4,300 -1,500 Descending Atlanta Center
02:36PM 34.8267 -82.1106 222° Southwest 258 297 2,800 -960 Descending Atlanta Center
02:37PM 34.7753 -82.1625 220° Southwest 252 290 2,400 -180 Descending Atlanta Center
02:38PM 34.7742 -82.2181 269° West 205 236 2,500  Climbing Atlanta Center
02:39PM 34.8103 -82.2653 313° West 164 189 2,400 -180 Descending Atlanta Center
02:40PM 34.8442 -82.2975 322° Northwest 156 180 2,200 8,760 Descending Atlanta Center
02:41PM 34.8656 -82.3400 302° West 156 180 20,000 17,760 Climbing Atlanta Center